createdAt,value
2023-04-15T00:16:23.099Z,8.10
2023-04-15T00:38:26.776Z,8.10
2023-04-15T01:10:18.680Z,8.10
2023-04-15T01:34:51.407Z,8.00
2023-04-15T01:49:33.459Z,7.90
2023-04-15T04:36:30.088Z,7.90
2023-04-15T05:30:27.603Z,8.40
2023-04-15T06:29:22.908Z,9.40
2023-04-15T06:31:49.636Z,9.50
2023-04-15T06:51:27.081Z,10.10
2023-04-15T07:13:32.792Z,10.60
2023-04-15T07:28:14.698Z,11.00
2023-04-15T07:30:41.661Z,11.00
2023-04-15T07:33:08.388Z,11.00
2023-04-15T07:35:35.043Z,11.10
2023-04-15T07:38:01.675Z,11.20
2023-04-15T07:40:28.409Z,11.40
2023-04-15T07:42:56.353Z,11.50
2023-04-15T07:45:22.879Z,13.90
2023-04-15T07:47:50.965Z,11.90
2023-04-15T07:50:18.249Z,11.90
2023-04-15T07:52:44.820Z,11.80
2023-04-15T07:55:11.416Z,11.70
2023-04-15T07:57:38.030Z,11.80
2023-04-15T08:00:08.026Z,11.70
2023-04-15T08:02:36.312Z,11.80
2023-04-15T08:05:04.505Z,11.70
2023-04-15T08:07:31.381Z,11.70
2023-04-15T08:09:57.980Z,11.70
2023-04-15T08:12:24.924Z,11.70
2023-04-15T08:14:51.849Z,11.80
2023-04-15T08:17:18.501Z,12.00
2023-04-15T08:19:45.138Z,12.10
2023-04-15T08:22:18.550Z,12.00
2023-04-15T08:24:45.921Z,11.80
2023-04-15T08:27:12.708Z,11.90
2023-04-15T08:29:39.309Z,11.80
2023-04-15T08:32:06.216Z,11.70
2023-04-15T08:34:32.798Z,11.60
2023-04-15T08:36:59.322Z,11.50
2023-04-15T08:39:26.262Z,11.40
2023-04-15T08:42:03.956Z,11.30
2023-04-15T08:44:33.449Z,11.30
2023-04-15T08:47:03.551Z,11.10
2023-04-15T08:49:30.494Z,10.90
2023-04-15T08:51:58.771Z,11.00
2023-04-15T08:54:26.085Z,10.90
2023-04-15T08:56:53.019Z,10.90
2023-04-15T08:59:21.816Z,11.00
2023-04-15T09:01:49.459Z,11.10
2023-04-15T09:04:16.776Z,11.10
2023-04-15T09:06:43.488Z,11.00
2023-04-15T09:09:10.141Z,11.60
2023-04-15T09:11:36.764Z,11.00
2023-04-15T09:14:03.656Z,11.60
2023-04-15T09:16:30.762Z,11.30
2023-04-15T09:18:57.371Z,14.40
2023-04-15T09:21:24.487Z,11.40
2023-04-15T09:23:55.992Z,11.40
2023-04-15T09:26:48.680Z,11.50
2023-04-15T09:29:15.235Z,11.70
2023-04-15T09:31:42.762Z,11.90
2023-04-15T09:34:09.478Z,11.90
2023-04-15T09:36:50.400Z,11.90
2023-04-15T09:39:17.620Z,11.90
2023-04-15T09:41:44.647Z,11.80
2023-04-15T09:44:24.212Z,11.90
2023-04-15T09:46:50.929Z,11.80
2023-04-15T09:49:18.303Z,15.00
2023-04-15T09:51:51.343Z,12.10
2023-04-15T09:54:34.965Z,11.90
2023-04-15T09:57:05.259Z,11.90
2023-04-15T09:59:31.877Z,11.80
2023-04-15T10:01:58.596Z,11.90
2023-04-15T10:04:26.933Z,11.80
2023-04-15T10:06:53.584Z,11.80
2023-04-15T10:09:20.225Z,11.90
2023-04-15T10:11:48.151Z,11.90
2023-04-15T10:14:16.049Z,12.10
2023-04-15T10:16:45.920Z,11.90
2023-04-15T10:19:12.617Z,11.80
2023-04-15T10:21:39.273Z,11.70
2023-04-15T10:24:06.066Z,11.50
2023-04-15T10:26:32.845Z,11.40
2023-04-15T10:29:00.151Z,11.20
2023-04-15T10:31:26.969Z,11.00
2023-04-15T10:33:53.793Z,11.30
2023-04-15T10:36:20.530Z,10.80
2023-04-15T10:38:47.536Z,10.70
2023-04-15T10:41:17.083Z,10.70
2023-04-15T10:43:46.452Z,10.60
2023-04-15T10:46:13.132Z,10.60
2023-04-15T10:48:44.094Z,10.60
2023-04-15T10:51:13.737Z,10.70
2023-04-15T10:53:42.627Z,10.80
2023-04-15T10:56:10.182Z,10.80
2023-04-15T10:58:43.157Z,10.90
2023-04-15T11:01:10.127Z,11.00
2023-04-15T11:03:38.179Z,11.10
2023-04-15T11:06:06.340Z,11.10
2023-04-15T11:08:51.372Z,10.90
2023-04-15T11:11:17.914Z,11.10
2023-04-15T11:13:48.333Z,11.20
2023-04-15T11:16:15.058Z,11.30
2023-04-15T11:18:43.114Z,11.40
2023-04-15T11:21:09.702Z,10.10
2023-04-15T11:23:39.717Z,11.90
2023-04-15T11:26:09.579Z,11.90
2023-04-15T11:28:38.303Z,12.10
2023-04-15T11:31:06.345Z,12.20
2023-04-15T11:33:32.980Z,12.40
2023-04-15T11:36:00.338Z,12.50
2023-04-15T11:38:27.144Z,12.50
2023-04-15T11:40:53.749Z,12.30
2023-04-15T11:43:21.531Z,12.10
2023-04-15T11:45:55.956Z,12.20
2023-04-15T11:48:23.819Z,11.60
2023-04-15T11:50:58.661Z,11.40
2023-04-15T11:53:35.607Z,11.40
2023-04-15T11:56:02.196Z,11.50
2023-04-15T11:58:29.228Z,11.40
2023-04-15T12:00:57.564Z,11.20
2023-04-15T12:03:26.057Z,11.30
2023-04-15T12:06:06.074Z,11.30
2023-04-15T12:08:51.394Z,11.30
2023-04-15T12:11:18.380Z,11.30
2023-04-15T12:13:46.796Z,11.30
2023-04-15T12:16:13.548Z,11.30
2023-04-15T12:18:40.134Z,11.30
2023-04-15T12:21:10.806Z,11.30
2023-04-15T12:23:48.748Z,11.30
2023-04-15T12:26:15.395Z,11.30
2023-04-15T12:28:44.661Z,11.20
2023-04-15T12:31:11.596Z,11.00
2023-04-15T12:33:38.276Z,11.00
2023-04-15T12:36:05.100Z,11.20
2023-04-15T12:38:31.803Z,10.80
2023-04-15T12:40:58.569Z,10.80
2023-04-15T12:43:25.253Z,10.90
2023-04-15T12:45:52.227Z,10.90
2023-04-15T12:48:18.746Z,10.80
2023-04-15T12:50:45.308Z,11.30
2023-04-15T12:53:11.883Z,10.90
2023-04-15T12:55:38.480Z,11.00
2023-04-15T12:58:05.017Z,11.00
2023-04-15T13:00:33.786Z,11.00
2023-04-15T13:03:00.695Z,11.00
2023-04-15T13:05:27.332Z,11.10
2023-04-15T13:07:54.026Z,11.20
2023-04-15T13:10:22.190Z,11.30
2023-04-15T13:12:50.128Z,11.40
2023-04-15T13:15:19.485Z,11.50
2023-04-15T13:17:46.539Z,11.50
2023-04-15T13:20:13.662Z,11.50
2023-04-15T13:22:40.580Z,11.40
2023-04-15T13:25:08.260Z,11.30
2023-04-15T13:27:34.861Z,11.30
2023-04-15T13:30:01.698Z,11.10
2023-04-15T13:32:28.249Z,11.10
2023-04-15T13:34:56.274Z,11.00
2023-04-15T13:37:29.440Z,11.00
2023-04-15T13:39:56.221Z,10.90
2023-04-15T13:42:23.994Z,10.90
2023-04-15T13:44:53.911Z,10.90
2023-04-15T13:47:21.008Z,11.10
2023-04-15T13:49:47.762Z,14.10
2023-04-15T13:52:14.364Z,11.30
2023-04-15T13:54:41.034Z,11.40
2023-04-15T13:57:07.608Z,11.30
2023-04-15T13:59:34.899Z,11.30
2023-04-15T14:02:01.723Z,11.30
2023-04-15T14:04:28.561Z,11.50
2023-04-15T14:06:56.048Z,11.20
2023-04-15T14:09:26.212Z,11.10
2023-04-15T14:11:53.100Z,11.20
2023-04-15T14:14:19.678Z,11.20
2023-04-15T14:16:46.319Z,11.10
2023-04-15T14:19:13.039Z,11.00
2023-04-15T14:21:39.715Z,11.00
2023-04-15T14:24:06.293Z,12.40
2023-04-15T14:26:32.884Z,14.00
2023-04-15T14:28:59.718Z,14.80
2023-04-15T14:31:26.468Z,15.30
2023-04-15T14:33:53.077Z,15.60
2023-04-15T14:36:20.284Z,15.70
2023-04-15T14:38:48.528Z,15.80
2023-04-15T14:41:16.060Z,15.70
2023-04-15T14:43:42.706Z,15.60
2023-04-15T14:46:10.565Z,14.90
2023-04-15T14:48:37.344Z,15.00
2023-04-15T14:51:04.085Z,13.90
2023-04-15T14:53:30.940Z,13.00
2023-04-15T14:55:57.621Z,13.10
2023-04-15T14:58:24.207Z,11.90
2023-04-15T15:00:50.919Z,11.60
2023-04-15T15:03:17.549Z,11.30
2023-04-15T15:05:45.435Z,11.10
2023-04-15T15:08:12.699Z,10.90
2023-04-15T15:10:48.391Z,10.70
2023-04-15T15:13:16.691Z,10.70
2023-04-15T15:15:43.494Z,10.60
2023-04-15T15:18:10.401Z,10.50
2023-04-15T15:20:37.269Z,10.40
2023-04-15T15:23:03.882Z,10.40
2023-04-15T15:25:30.481Z,10.40
2023-04-15T15:27:57.443Z,10.30
2023-04-15T15:30:24.079Z,10.20
2023-04-15T15:32:51.456Z,10.20
2023-04-15T15:35:18.080Z,10.20
2023-04-15T15:37:45.686Z,10.20
2023-04-15T15:40:12.454Z,10.10
2023-04-15T15:42:39.054Z,10.10
2023-04-15T15:45:05.995Z,10.10
2023-04-15T15:47:32.795Z,9.70
2023-04-15T15:49:59.946Z,10.00
2023-04-15T15:52:26.464Z,10.00
2023-04-15T15:54:53.015Z,9.90
2023-04-15T15:57:19.582Z,9.90
2023-04-15T15:59:46.399Z,9.80
2023-04-15T16:02:14.015Z,9.70
2023-04-15T16:04:41.586Z,9.70
2023-04-15T16:07:08.272Z,9.70
2023-04-15T16:09:35.286Z,9.70
2023-04-15T16:12:03.396Z,9.70
2023-04-15T16:14:29.962Z,9.70
2023-04-15T16:16:57.316Z,9.60
2023-04-15T16:19:23.979Z,9.70
2023-04-15T16:21:51.192Z,9.70
2023-04-15T16:24:17.815Z,9.70
2023-04-15T16:26:44.387Z,9.60
2023-04-15T16:29:10.977Z,9.50
2023-04-15T16:31:39.810Z,9.60
2023-04-15T16:34:06.591Z,9.50
2023-04-15T16:36:36.715Z,9.60
2023-04-15T16:39:04.237Z,9.60
2023-04-15T16:41:33.291Z,9.50
2023-04-15T16:44:01.965Z,9.70
2023-04-15T16:46:29.585Z,9.50
2023-04-15T16:48:56.188Z,9.60
2023-04-15T16:51:22.821Z,9.60
2023-04-15T16:53:49.418Z,9.60
2023-04-15T16:56:16.621Z,9.60
2023-04-15T16:58:43.217Z,9.60
2023-04-15T17:01:10.125Z,9.60
2023-04-15T17:03:36.981Z,9.50
2023-04-15T17:06:03.681Z,9.50
2023-04-15T17:08:30.258Z,9.50
2023-04-15T17:10:57.466Z,9.50
2023-04-15T17:13:25.245Z,9.50
2023-04-15T17:15:53.474Z,9.40
2023-04-15T17:18:21.533Z,9.40
2023-04-15T17:20:48.090Z,9.40
2023-04-15T17:23:14.603Z,9.40
2023-04-15T17:25:41.135Z,9.50
2023-04-15T17:28:07.690Z,9.40
2023-04-15T17:35:28.989Z,9.50
2023-04-15T17:45:16.707Z,9.50
2023-04-15T17:47:43.702Z,9.50
2023-04-15T17:50:10.433Z,9.50
2023-04-15T17:59:57.977Z,9.50
2023-04-15T18:04:51.760Z,9.40
2023-04-15T18:48:59.410Z,9.30
2023-04-15T19:36:01.208Z,9.20
2023-04-15T20:07:55.141Z,9.10
2023-04-15T20:10:22.095Z,9.10
2023-04-15T20:17:46.243Z,9.20
2023-04-15T21:24:07.817Z,9.00
2023-04-15T21:26:35.985Z,9.00
2023-04-15T21:29:03.050Z,9.00
2023-04-15T21:36:24.231Z,9.00
2023-04-15T21:48:50.482Z,9.00
2023-04-15T21:56:13.277Z,8.90
2023-04-15T21:58:39.885Z,8.80
2023-04-15T22:01:06.497Z,8.80
2023-04-15T22:03:34.392Z,8.80
2023-04-15T22:06:02.738Z,8.80
2023-04-15T22:08:30.910Z,8.80
2023-04-15T22:13:25.683Z,8.80
2023-04-15T22:15:52.490Z,8.80
2023-04-15T22:18:19.103Z,8.80
2023-04-15T22:20:45.926Z,8.80
2023-04-15T22:23:12.524Z,8.70
2023-04-15T22:25:39.072Z,8.70
2023-04-15T22:28:08.898Z,8.80
2023-04-15T22:30:39.056Z,8.80
2023-04-15T22:33:06.405Z,8.70
2023-04-15T22:35:34.206Z,8.70
2023-04-15T22:38:00.769Z,8.70
2023-04-15T22:40:27.945Z,8.70
2023-04-15T22:42:54.485Z,8.80
2023-04-15T22:45:21.274Z,8.70
2023-04-15T22:47:47.936Z,7.70
2023-04-15T22:50:14.550Z,8.80
2023-04-15T22:52:41.229Z,8.60
2023-04-15T22:55:08.347Z,9.40
2023-04-15T22:57:34.923Z,8.70
2023-04-15T23:00:01.933Z,8.80
2023-04-15T23:02:28.757Z,9.40
2023-04-15T23:04:55.551Z,8.80
2023-04-15T23:07:22.157Z,8.80
2023-04-15T23:09:48.739Z,8.80
2023-04-15T23:12:15.508Z,8.80
2023-04-15T23:19:36.168Z,8.90
2023-04-15T23:22:02.816Z,8.90
2023-04-15T23:24:29.375Z,8.80
2023-04-15T23:26:57.168Z,8.80
2023-04-15T23:29:23.801Z,8.80
2023-04-15T23:31:50.636Z,8.80
2023-04-15T23:34:17.212Z,9.20
2023-04-15T23:36:43.805Z,8.80
2023-04-15T23:39:10.677Z,8.80
2023-04-15T23:41:37.351Z,8.80
2023-04-15T23:48:58.122Z,8.90
2023-04-15T23:51:24.685Z,8.90
2023-04-15T23:58:46.058Z,8.90
